Garden River, Canada
Current Conditions -  °F | °C
As of 10:55 AM on Wednesday 22 Oct 2014 (Local Time) from KANJ Reporting Station
Clear Clear  
Wind Chill: 40°   Ceiling: Unl
Heat Index: 40°   Visibility: 10mi
Dew Point: 30°   Wind: 0mph
Humidity: 68%   Direction: NA
Pressure: 30.42"   Gusts: NA
Location:  46.55°N, 84.15°W
Report Text: KANJ 221455Z AUTO 00000KT 10SM CLR 04/M01 A3042 RMK AO2 SLP306 I3000 T00441011 51008
Loading
Personal Weather Stations






























Interactive Weather Map
Tropical Storm Tracking
New forecast layout! Learn more

10-Day Weather Forecast

Advertisements
Track Severe Weather on mobile